createdAt,value
2017-04-05T00:00:00.091Z,32.12
2017-04-05T00:01:00.446Z,30.25
2017-04-05T00:01:59.665Z,29.58
2017-04-05T00:02:59.547Z,29.90
2017-04-05T00:03:58.713Z,33.98
2017-04-05T00:04:57.863Z,34.55
2017-04-05T00:05:57.008Z,28.88
2017-04-05T00:06:56.400Z,28.78
2017-04-05T00:07:55.564Z,26.98
2017-04-05T00:08:54.722Z,30.48
2017-04-05T00:09:54.727Z,28.08
2017-04-05T00:10:54.634Z,29.78
2017-04-05T00:11:53.839Z,34.35
2017-04-05T00:12:53.458Z,32.90
2017-04-05T00:13:53.343Z,28.83
2017-04-05T00:14:52.502Z,31.87
2017-04-05T00:15:52.393Z,29.40
2017-04-05T00:16:52.281Z,31.43
2017-04-05T00:17:51.430Z,28.07
2017-04-05T00:18:50.630Z,31.80
2017-04-05T00:19:49.808Z,35.73
2017-04-05T00:20:48.958Z,29.85
2017-04-05T00:21:48.843Z,30.93
2017-04-05T00:22:48.006Z,31.83
2017-04-05T00:23:47.167Z,31.40
2017-04-05T00:24:46.357Z,29.17
2017-04-05T00:25:45.498Z,32.02
2017-04-05T00:26:45.383Z,27.75
2017-04-05T00:27:44.539Z,31.55
2017-04-05T00:28:43.692Z,32.08
2017-04-05T00:29:43.570Z,34.47
2017-04-05T00:30:42.770Z,31.03
2017-04-05T00:31:42.671Z,31.40
2017-04-05T00:32:41.817Z,31.95
2017-04-05T00:33:41.711Z,32.48
2017-04-05T00:34:40.936Z,29.43
2017-04-05T00:35:40.106Z,35.12
2017-04-05T00:36:39.294Z,30.98
2017-04-05T00:37:38.431Z,27.50
2017-04-05T00:38:37.803Z,29.45
2017-04-05T00:39:36.947Z,32.58
2017-04-05T00:40:36.089Z,31.13
2017-04-05T00:41:36.006Z,33.90
2017-04-05T00:42:35.926Z,29.20
2017-04-05T00:43:35.062Z,29.17
2017-04-05T00:44:34.230Z,31.68
2017-04-05T00:45:33.423Z,30.48
2017-04-05T00:46:32.615Z,31.22
2017-04-05T00:47:31.886Z,33.02
2017-04-05T00:48:31.073Z,30.77
2017-04-05T00:49:30.230Z,28.75
2017-04-05T00:50:29.374Z,31.47
2017-04-05T00:51:28.523Z,26.88
2017-04-05T00:52:27.670Z,29.20
2017-04-05T00:53:26.795Z,31.52
2017-04-05T00:54:26.207Z,30.97
2017-04-05T00:55:25.374Z,30.33
2017-04-05T00:56:24.526Z,34.23
2017-04-05T00:57:23.665Z,37.83
2017-04-05T00:58:22.825Z,32.72
2017-04-05T00:59:22.007Z,29.82
2017-04-05T01:00:21.758Z,35.67
2017-04-05T01:01:20.962Z,29.33
2017-04-05T01:02:20.354Z,33.42
2017-04-05T01:03:19.541Z,33.58
2017-04-05T01:04:18.697Z,33.05
2017-04-05T01:05:17.907Z,33.52
2017-04-05T01:06:17.119Z,33.07
2017-04-05T01:07:17.009Z,39.80
2017-04-05T01:08:16.184Z,32.73
2017-04-05T01:09:15.382Z,30.28
2017-04-05T01:10:14.541Z,31.37
2017-04-05T01:11:13.703Z,28.52
2017-04-05T01:12:13.022Z,31.23
2017-04-05T01:13:12.170Z,29.55
2017-04-05T01:14:11.382Z,28.95
2017-04-05T01:15:10.542Z,34.65
2017-04-05T01:16:10.435Z,30.87
2017-04-05T01:17:10.326Z,30.30
2017-04-05T01:18:10.607Z,33.33
2017-04-05T01:19:09.770Z,26.50
2017-04-05T01:20:08.923Z,32.12
2017-04-05T01:21:08.091Z,29.75
2017-04-05T01:22:07.527Z,30.90
2017-04-05T01:23:06.735Z,29.15
2017-04-05T01:24:06.031Z,32.17
2017-04-05T01:25:05.240Z,29.05
2017-04-05T01:26:04.445Z,32.08
2017-04-05T01:27:03.644Z,35.70
2017-04-05T01:28:03.554Z,34.90
2017-04-05T01:29:03.527Z,30.27
2017-04-05T01:30:02.742Z,32.92
2017-04-05T01:31:02.718Z,30.18
2017-04-05T01:32:01.966Z,27.55
2017-04-05T01:33:01.250Z,32.78
2017-04-05T01:34:00.456Z,29.37
2017-04-05T01:34:59.604Z,28.85
2017-04-05T01:35:59.523Z,30.17
2017-04-05T01:36:59.417Z,31.28
2017-04-05T01:37:59.288Z,31.50
2017-04-05T01:38:58.432Z,32.13
2017-04-05T01:39:57.556Z,30.00
2017-04-05T01:40:56.692Z,31.53
2017-04-05T01:41:56.587Z,30.52
2017-04-05T01:42:56.459Z,28.08
2017-04-05T01:43:55.573Z,33.88
2017-04-05T01:44:55.436Z,34.10
2017-04-05T01:45:54.548Z,33.07
2017-04-05T01:46:53.677Z,32.05
2017-04-05T01:47:53.008Z,33.58
2017-04-05T01:48:52.124Z,30.60
2017-04-05T01:49:51.968Z,32.38
2017-04-05T01:50:51.161Z,33.87
2017-04-05T01:51:50.280Z,33.08
2017-04-05T01:52:49.387Z,32.33
2017-04-05T01:53:49.292Z,35.50
2017-04-05T01:54:49.156Z,30.60
2017-04-05T01:55:48.277Z,30.70
2017-04-05T01:56:47.404Z,30.15
2017-04-05T01:57:46.580Z,32.07
2017-04-05T01:58:46.279Z,32.88
2017-04-05T01:59:45.444Z,29.60
2017-04-05T02:00:45.328Z,30.83
2017-04-05T02:01:44.460Z,28.53
2017-04-05T02:02:43.614Z,29.63
2017-04-05T02:03:42.744Z,32.20
2017-04-05T02:04:41.888Z,28.25
2017-04-05T02:05:41.056Z,32.67
2017-04-05T02:06:40.173Z,29.57
2017-04-05T02:07:40.036Z,29.73
2017-04-05T02:08:39.180Z,28.37
2017-04-05T02:09:38.304Z,30.28
2017-04-05T02:10:37.432Z,27.28
2017-04-05T02:11:37.508Z,31.32
2017-04-05T02:12:36.652Z,31.25
2017-04-05T02:13:35.794Z,28.58
2017-04-05T02:14:34.920Z,26.73
2017-04-05T02:15:34.076Z,28.85
2017-04-05T02:16:33.199Z,31.12
2017-04-05T02:17:32.348Z,30.65
2017-04-05T02:18:31.526Z,29.13
2017-04-05T02:19:30.620Z,27.62
2017-04-05T02:20:29.721Z,27.65
2017-04-05T02:21:29.564Z,29.33
2017-04-05T02:22:28.700Z,29.05
2017-04-05T02:23:27.916Z,38.02
2017-04-05T02:24:27.048Z,33.00
2017-04-05T02:25:26.164Z,27.50
2017-04-05T02:26:25.308Z,31.95
2017-04-05T02:27:24.429Z,33.22
2017-04-05T02:28:23.716Z,35.45
2017-04-05T02:29:22.864Z,32.78
2017-04-05T02:30:22.004Z,30.48
2017-04-05T02:31:21.124Z,27.82
2017-04-05T02:32:20.336Z,27.75
2017-04-05T02:33:19.436Z,30.05
2017-04-05T02:34:18.584Z,29.72
2017-04-05T02:35:18.019Z,29.10
2017-04-05T02:36:17.156Z,32.78
2017-04-05T02:37:16.304Z,31.92
2017-04-05T02:38:15.424Z,33.70
2017-04-05T02:39:14.541Z,30.13
2017-04-05T02:40:13.692Z,33.37
2017-04-05T02:41:12.888Z,29.10
2017-04-05T02:42:12.048Z,30.13
2017-04-05T02:43:11.173Z,36.17
2017-04-05T02:44:10.336Z,28.05
2017-04-05T02:45:10.198Z,29.63
2017-04-05T02:46:09.332Z,28.83
2017-04-05T02:47:09.252Z,34.63
2017-04-05T02:48:08.359Z,34.92
2017-04-05T02:49:07.475Z,34.10
2017-04-05T02:50:06.605Z,30.85
2017-04-05T02:51:05.784Z,30.30
2017-04-05T02:52:05.639Z,30.57
2017-04-05T02:53:05.536Z,27.83
2017-04-05T02:54:04.673Z,30.40
2017-04-05T02:55:04.552Z,32.25
2017-04-05T02:56:03.708Z,27.18
2017-04-05T02:57:02.820Z,32.42
2017-04-05T02:58:01.925Z,32.35
2017-04-05T02:59:01.376Z,28.83
2017-04-05T03:00:00.501Z,30.13
2017-04-05T03:00:59.607Z,32.17
2017-04-05T03:01:58.715Z,31.73
2017-04-05T03:02:57.819Z,30.67
2017-04-05T03:03:56.939Z,33.73
2017-04-05T03:04:56.101Z,32.20
2017-04-05T03:05:55.221Z,33.70
2017-04-05T03:06:55.072Z,33.72
2017-04-05T03:07:54.188Z,35.03
2017-04-05T03:08:53.325Z,32.53
2017-04-05T03:09:52.447Z,31.45
2017-04-05T03:10:51.592Z,33.47
2017-04-05T03:11:50.725Z,30.05
2017-04-05T03:12:49.860Z,36.82
2017-04-05T03:13:50.100Z,34.82
2017-04-05T03:14:49.204Z,31.08
2017-04-05T03:15:48.320Z,33.68
2017-04-05T03:16:47.464Z,30.45
2017-04-05T03:17:46.613Z,36.22
2017-04-05T03:18:46.484Z,28.88
2017-04-05T03:19:45.588Z,33.20
2017-04-05T03:20:44.717Z,32.83
2017-04-05T03:21:43.829Z,31.38
2017-04-05T03:22:43.063Z,30.42
2017-04-05T03:23:42.937Z,33.78
2017-04-05T03:24:42.061Z,31.53
2017-04-05T03:25:41.924Z,34.02
2017-04-05T03:26:41.044Z,35.43
2017-04-05T03:27:40.920Z,33.43
2017-04-05T03:28:40.305Z,32.58
2017-04-05T03:29:39.421Z,35.50
2017-04-05T03:30:39.272Z,34.53
2017-04-05T03:31:38.412Z,34.22
2017-04-05T03:32:38.269Z,29.77
2017-04-05T03:33:37.379Z,33.73
2017-04-05T03:34:36.594Z,35.52
2017-04-05T03:35:36.449Z,33.92
2017-04-05T03:36:35.828Z,36.52
2017-04-05T03:37:34.964Z,30.85
2017-04-05T03:38:34.089Z,34.63
2017-04-05T03:39:33.208Z,33.82
2017-04-05T03:40:32.368Z,34.83
2017-04-05T03:41:31.486Z,33.03
2017-04-05T03:42:30.608Z,35.15
2017-04-05T03:43:30.465Z,38.03
2017-04-05T03:44:29.577Z,28.50
2017-04-05T03:45:28.701Z,34.20
2017-04-05T03:46:28.273Z,33.63
2017-04-05T03:47:28.211Z,32.83
2017-04-05T03:48:27.343Z,32.72
2017-04-05T03:49:26.476Z,36.65
2017-04-05T03:50:25.592Z,32.78
2017-04-05T03:51:24.728Z,35.18
2017-04-05T03:52:24.020Z,34.57
2017-04-05T03:53:23.877Z,31.58
2017-04-05T03:54:22.999Z,34.97
2017-04-05T03:55:22.112Z,36.67
2017-04-05T03:56:21.227Z,39.33
2017-04-05T03:57:20.368Z,37.68
2017-04-05T03:58:20.292Z,36.45
2017-04-05T03:59:19.456Z,36.32
2017-04-05T04:00:18.649Z,37.87
2017-04-05T04:01:18.568Z,37.53
2017-04-05T04:02:17.998Z,37.47
2017-04-05T04:03:17.142Z,36.63
2017-04-05T04:04:17.339Z,37.90
2017-04-05T04:05:17.228Z,32.23
2017-04-05T04:06:16.350Z,33.05
2017-04-05T04:07:16.212Z,30.42
2017-04-05T04:08:15.344Z,31.97
2017-04-05T04:09:14.453Z,33.93
2017-04-05T04:10:13.708Z,29.12
2017-04-05T04:11:12.880Z,35.13
2017-04-05T04:12:12.784Z,36.20
2017-04-05T04:13:11.912Z,39.32
2017-04-05T04:14:11.028Z,37.05
2017-04-05T04:15:10.180Z,32.43
2017-04-05T04:16:09.368Z,35.08
2017-04-05T04:17:08.483Z,35.28
2017-04-05T04:18:07.605Z,33.20
2017-04-05T04:19:07.482Z,33.97
2017-04-05T04:20:06.602Z,32.02
2017-04-05T04:21:06.496Z,37.23
2017-04-05T04:22:05.660Z,31.47
2017-04-05T04:23:04.780Z,37.55
2017-04-05T04:24:04.636Z,35.07
2017-04-05T04:25:03.796Z,43.68
2017-04-05T04:26:02.912Z,37.70
2017-04-05T04:27:02.025Z,36.92
2017-04-05T04:28:01.176Z,37.68
2017-04-05T04:29:00.289Z,36.25
2017-04-05T04:29:59.399Z,36.43
2017-04-05T04:30:59.264Z,38.02
2017-04-05T04:31:58.380Z,34.17
2017-04-05T04:32:57.495Z,35.18
2017-04-05T04:33:56.660Z,34.73
2017-04-05T04:34:56.519Z,33.83
2017-04-05T04:35:55.632Z,35.52
2017-04-05T04:36:54.932Z,35.18
2017-04-05T04:37:54.043Z,30.88
2017-04-05T04:38:53.168Z,38.03
2017-04-05T04:39:52.356Z,36.22
2017-04-05T04:40:51.476Z,40.67
2017-04-05T04:41:50.597Z,38.28
2017-04-05T04:42:49.751Z,35.75
2017-04-05T04:43:48.871Z,42.10
2017-04-05T04:44:47.988Z,40.43
2017-04-05T04:45:47.136Z,37.85
2017-04-05T04:46:46.997Z,35.57
2017-04-05T04:47:46.107Z,39.10
2017-04-05T04:48:45.971Z,39.23
2017-04-05T04:49:45.092Z,37.18
2017-04-05T04:50:44.224Z,39.77
2017-04-05T04:51:43.381Z,40.43
2017-04-05T04:52:43.252Z,39.57
2017-04-05T04:53:42.372Z,37.45
2017-04-05T04:54:42.241Z,38.83
2017-04-05T04:55:41.364Z,39.95
2017-04-05T04:56:41.272Z,33.13
2017-04-05T04:57:41.556Z,41.17
2017-04-05T04:58:40.676Z,35.75
2017-04-05T04:59:39.805Z,38.18
2017-04-05T05:00:38.952Z,35.40
2017-04-05T05:01:38.092Z,36.85
2017-04-05T05:02:37.240Z,39.00
2017-04-05T05:03:36.776Z,38.45
2017-04-05T05:04:35.900Z,40.57
2017-04-05T05:05:35.786Z,37.65
2017-04-05T05:06:35.653Z,39.85
2017-04-05T05:07:35.549Z,37.57
2017-04-05T05:08:34.672Z,37.80
2017-04-05T05:09:33.857Z,36.40
2017-04-05T05:10:32.984Z,39.72
2017-04-05T05:11:32.118Z,35.48
2017-04-05T05:12:31.251Z,37.97
2017-04-05T05:13:31.121Z,36.83
2017-04-05T05:14:30.256Z,37.75
2017-04-05T05:15:29.456Z,37.40
2017-04-05T05:16:28.591Z,34.78
2017-04-05T05:17:27.745Z,39.87
2017-04-05T05:18:26.869Z,39.87
2017-04-05T05:19:26.230Z,39.82
2017-04-05T05:20:26.211Z,35.35
2017-04-05T05:21:25.535Z,38.02
2017-04-05T05:22:24.811Z,38.87
2017-04-05T05:23:23.941Z,36.97
2017-04-05T05:24:23.823Z,37.92
2017-04-05T05:25:22.985Z,44.07
2017-04-05T05:26:22.153Z,35.47
2017-04-05T05:27:21.343Z,41.78
2017-04-05T05:28:20.485Z,38.98
2017-04-05T05:29:20.372Z,34.30
2017-04-05T05:30:19.577Z,35.15
2017-04-05T05:31:19.444Z,40.28
2017-04-05T05:32:18.582Z,39.00
2017-04-05T05:33:18.623Z,39.05
2017-04-05T05:34:17.787Z,45.23
2017-04-05T05:35:16.908Z,34.17
2017-04-05T05:36:16.052Z,42.57
2017-04-05T05:37:15.216Z,39.13
2017-04-05T05:38:14.350Z,42.38
2017-04-05T05:39:13.607Z,38.97
2017-04-05T05:40:13.483Z,35.60
2017-04-05T05:41:13.569Z,37.82
2017-04-05T05:42:12.720Z,38.45
2017-04-05T05:43:12.586Z,40.42
2017-04-05T05:44:11.720Z,41.92
2017-04-05T05:45:11.053Z,40.02
2017-04-05T05:46:10.168Z,38.72
2017-04-05T05:47:10.049Z,40.15
2017-04-05T05:48:09.176Z,41.27
2017-04-05T05:49:09.044Z,41.12
2017-04-05T05:50:08.283Z,40.33
2017-04-05T05:51:07.480Z,38.58
2017-04-05T05:52:06.601Z,40.68
2017-04-05T05:53:05.768Z,39.12
2017-04-05T05:54:04.908Z,38.33
2017-04-05T05:55:04.779Z,34.80
2017-04-05T05:56:03.915Z,38.53
2017-04-05T05:57:03.462Z,36.73
2017-04-05T05:58:02.588Z,36.12
2017-04-05T05:59:02.452Z,37.00
2017-04-05T06:00:02.407Z,37.00
2017-04-05T06:01:01.581Z,33.85
2017-04-05T06:02:01.450Z,36.67
2017-04-05T06:03:00.715Z,37.25
2017-04-05T06:03:59.862Z,38.43
2017-04-05T06:04:59.744Z,38.65
2017-04-05T06:05:58.876Z,39.82
2017-04-05T06:06:58.282Z,37.57
2017-04-05T06:07:57.423Z,40.58
2017-04-05T06:08:56.681Z,38.60
2017-04-05T06:09:55.804Z,37.83
2017-04-05T06:10:55.673Z,37.85
2017-04-05T06:11:54.813Z,38.35
2017-04-05T06:12:53.940Z,37.55
2017-04-05T06:13:53.800Z,33.83
2017-04-05T06:14:53.400Z,34.77
2017-04-05T06:15:52.523Z,41.90
2017-04-05T06:16:51.726Z,38.15
2017-04-05T06:17:50.952Z,40.82
2017-04-05T06:18:50.824Z,40.60
2017-04-05T06:19:49.948Z,43.00
2017-04-05T06:20:49.118Z,43.84
2017-04-05T06:21:48.997Z,37.78
2017-04-05T06:22:48.131Z,37.47
2017-04-05T06:23:47.268Z,41.70
2017-04-05T06:24:46.400Z,43.82
2017-04-05T06:25:46.480Z,41.23
2017-04-05T06:26:45.652Z,45.10
2017-04-05T06:27:44.788Z,37.93
2017-04-05T06:28:43.894Z,40.75
2017-04-05T06:29:43.028Z,37.45
2017-04-05T06:30:42.913Z,42.20
2017-04-05T06:31:42.060Z,42.83
2017-04-05T06:32:41.359Z,48.18
2017-04-05T06:33:40.500Z,40.05
2017-04-05T06:34:40.365Z,39.15
2017-04-05T06:35:39.764Z,42.77
2017-04-05T06:36:38.963Z,48.47
2017-04-05T06:37:38.191Z,43.35
2017-04-05T06:38:37.541Z,43.67
2017-04-05T06:39:36.677Z,39.52
2017-04-05T06:40:35.863Z,44.90
2017-04-05T06:41:35.740Z,38.58
2017-04-05T06:42:35.593Z,45.97
2017-04-05T06:43:34.766Z,42.65
2017-04-05T06:44:33.888Z,48.02
2017-04-05T06:45:33.022Z,43.28
2017-04-05T06:46:32.998Z,37.05
2017-04-05T06:47:33.111Z,42.15
2017-04-05T06:48:32.391Z,41.93
2017-04-05T06:49:31.616Z,43.47
2017-04-05T06:50:31.338Z,53.93
2017-04-05T06:51:30.542Z,39.07
2017-04-05T06:52:29.685Z,44.57
2017-04-05T06:53:29.574Z,46.85
2017-04-05T06:54:29.176Z,40.60
2017-04-05T06:55:28.436Z,40.45
2017-04-05T06:56:27.612Z,43.65
2017-04-05T06:57:26.793Z,37.57
2017-04-05T06:58:25.952Z,42.25
2017-04-05T06:59:26.039Z,42.28
2017-04-05T07:00:25.482Z,39.90
2017-04-05T07:01:24.632Z,40.12
2017-04-05T07:02:24.859Z,46.40
2017-04-05T07:03:24.777Z,47.57
2017-04-05T07:04:23.908Z,43.20
2017-04-05T07:05:23.061Z,45.40
2017-04-05T07:06:23.345Z,40.00
2017-04-05T07:07:23.026Z,48.05
2017-04-05T07:08:22.935Z,44.47
2017-04-05T07:09:23.144Z,40.30
2017-04-05T07:10:23.326Z,47.13
2017-04-05T07:11:23.068Z,44.45
2017-04-05T07:12:23.292Z,49.25
2017-04-05T07:13:23.534Z,43.45
2017-04-05T07:14:24.467Z,47.32
2017-04-05T07:15:24.568Z,48.17
2017-04-05T07:16:26.499Z,42.38
2017-04-05T07:17:28.146Z,40.80
2017-04-05T07:18:29.003Z,37.52
2017-04-05T07:19:30.538Z,51.70
2017-04-05T07:20:31.068Z,44.25
2017-04-05T07:21:31.180Z,42.98
2017-04-05T07:22:31.997Z,45.73
2017-04-05T07:23:32.092Z,42.95
2017-04-05T07:24:32.917Z,48.43
2017-04-05T07:25:33.964Z,44.13
2017-04-05T07:26:33.959Z,41.45
2017-04-05T07:27:34.905Z,49.20
2017-04-05T07:28:34.669Z,43.37
2017-04-05T07:29:34.471Z,46.60
2017-04-05T07:30:34.297Z,43.50
2017-04-05T07:31:34.099Z,44.92
2017-04-05T07:32:34.824Z,45.60
2017-04-05T07:33:35.355Z,49.85
2017-04-05T07:34:36.316Z,46.78
2017-04-05T07:35:36.258Z,43.45
2017-04-05T07:36:35.825Z,45.50
2017-04-05T07:37:35.691Z,46.78
2017-04-05T07:38:36.117Z,45.05
2017-04-05T07:39:36.398Z,44.00
2017-04-05T07:40:36.005Z,46.10
2017-04-05T07:41:35.478Z,47.88
2017-04-05T07:42:35.904Z,45.58
2017-04-05T07:43:35.521Z,46.70
2017-04-05T07:44:35.217Z,43.20
2017-04-05T07:45:35.304Z,43.58
2017-04-05T07:46:34.819Z,46.77
2017-04-05T07:47:34.978Z,40.83
2017-04-05T07:48:34.834Z,43.27
2017-04-05T07:49:35.394Z,48.92
2017-04-05T07:50:35.278Z,46.32
2017-04-05T07:51:35.152Z,48.87
2017-04-05T07:52:35.200Z,44.88
2017-04-05T07:53:35.225Z,46.22
2017-04-05T07:54:35.743Z,55.33
2017-04-05T07:55:35.971Z,43.45
2017-04-05T07:56:36.381Z,47.20
2017-04-05T07:57:36.276Z,49.77
2017-04-05T07:58:36.259Z,46.75
2017-04-05T07:59:37.115Z,48.05
2017-04-05T08:00:37.067Z,44.48
2017-04-05T08:01:37.211Z,45.27
2017-04-05T08:02:37.031Z,48.18
2017-04-05T08:03:36.189Z,51.67
2017-04-05T08:04:35.637Z,50.18
2017-04-05T08:05:34.790Z,48.08
2017-04-05T08:06:33.163Z,48.90
2017-04-05T08:07:32.677Z,48.78
2017-04-05T08:08:32.233Z,48.47
2017-04-05T08:09:32.109Z,46.33
2017-04-05T08:10:31.305Z,49.57
2017-04-05T08:11:30.745Z,50.13
2017-04-05T08:12:30.151Z,44.10
2017-04-05T08:13:29.298Z,47.70
2017-04-05T08:14:29.389Z,52.37
2017-04-05T08:15:28.537Z,53.87
2017-04-05T08:16:27.757Z,47.83
2017-04-05T08:17:27.237Z,51.47
2017-04-05T08:18:26.429Z,48.17
2017-04-05T08:19:25.579Z,54.52
2017-04-05T08:20:25.045Z,50.68
2017-04-05T08:21:24.953Z,51.47
2017-04-05T08:22:24.842Z,52.42
2017-04-05T08:23:23.998Z,51.42
2017-04-05T08:24:23.150Z,54.92
2017-04-05T08:25:22.296Z,54.08
2017-04-05T08:26:21.657Z,46.63
2017-04-05T08:27:20.802Z,51.03
2017-04-05T08:28:20.678Z,49.95
2017-04-05T08:29:19.862Z,53.22
2017-04-05T08:30:19.062Z,53.45
2017-04-05T08:31:18.213Z,54.78
2017-04-05T08:32:17.429Z,58.55
2017-04-05T08:33:16.585Z,53.00
2017-04-05T08:34:15.778Z,57.90
2017-04-05T08:35:15.008Z,60.10
2017-04-05T08:36:14.963Z,57.02
2017-04-05T08:37:14.137Z,59.37
2017-04-05T08:38:13.365Z,58.90
2017-04-05T08:39:12.537Z,61.02
2017-04-05T08:40:11.702Z,58.83
2017-04-05T08:41:10.841Z,61.55
2017-04-05T08:42:09.981Z,60.78
2017-04-05T08:43:09.116Z,57.58
2017-04-05T08:44:08.358Z,64.92
2017-04-05T08:45:07.549Z,63.20
2017-04-05T08:46:06.700Z,53.60
2017-04-05T08:47:06.570Z,59.22
2017-04-05T08:48:05.762Z,58.65
2017-04-05T08:49:04.921Z,62.13
2017-04-05T08:50:04.186Z,67.88
2017-04-05T08:51:03.363Z,63.95
2017-04-05T08:52:03.298Z,61.88
2017-04-05T08:53:02.445Z,60.00
2017-04-05T08:54:02.323Z,58.53
2017-04-05T08:55:01.469Z,63.02
2017-04-05T08:56:00.700Z,68.57
2017-04-05T08:56:59.838Z,62.03
2017-04-05T08:57:58.972Z,59.87
2017-04-05T08:58:58.152Z,66.92
2017-04-05T08:59:57.705Z,61.13
2017-04-05T09:00:56.833Z,59.87
2017-04-05T09:01:56.033Z,58.93
2017-04-05T09:02:55.175Z,58.28
2017-04-05T09:03:54.341Z,62.77
2017-04-05T09:04:54.290Z,66.25
2017-04-05T09:05:53.433Z,65.72
2017-04-05T09:06:53.325Z,55.32
2017-04-05T09:07:53.294Z,56.43
2017-04-05T09:08:52.515Z,57.45
2017-04-05T09:09:52.409Z,64.22
2017-04-05T09:10:51.845Z,54.82
2017-04-05T09:11:50.985Z,52.95
2017-04-05T09:12:50.136Z,53.28
2017-04-05T09:13:49.324Z,53.62
2017-04-05T09:14:48.465Z,53.63
2017-04-05T09:15:48.354Z,47.32
2017-04-05T09:16:47.501Z,50.02
2017-04-05T09:17:46.702Z,57.77
2017-04-05T09:18:45.837Z,52.52
2017-04-05T09:19:46.861Z,59.05
2017-04-05T09:20:46.259Z,51.30
2017-04-05T09:21:46.147Z,51.93
2017-04-05T09:22:46.061Z,56.85
2017-04-05T09:23:45.492Z,55.05
2017-04-05T09:24:44.669Z,55.80
2017-04-05T09:25:44.221Z,57.47
2017-04-05T09:26:43.882Z,53.13
2017-04-05T09:27:43.105Z,57.07
2017-04-05T09:28:42.293Z,51.85
2017-04-05T09:29:41.741Z,61.73
2017-04-05T09:30:40.881Z,57.03
2017-04-05T09:31:40.482Z,54.12
2017-04-05T09:32:39.644Z,57.08
2017-04-05T09:33:38.796Z,49.65
2017-04-05T09:34:37.950Z,57.27
2017-04-05T09:35:37.177Z,58.13
2017-04-05T09:36:36.334Z,55.75
2017-04-05T09:37:36.289Z,55.15
2017-04-05T09:38:35.673Z,52.20
2017-04-05T09:39:35.425Z,49.52
2017-04-05T09:40:34.612Z,49.80
2017-04-05T09:41:34.509Z,54.53
2017-04-05T09:42:33.649Z,52.30
2017-04-05T09:43:33.081Z,50.85
2017-04-05T09:44:32.260Z,47.35
2017-04-05T09:45:31.413Z,48.60
2017-04-05T09:46:30.609Z,50.92
2017-04-05T09:47:29.767Z,51.45
2017-04-05T09:48:28.924Z,51.62
2017-04-05T09:49:35.090Z,47.45
2017-04-05T09:50:34.545Z,51.40
2017-04-05T09:51:33.678Z,55.40
2017-04-05T09:52:33.549Z,50.17
2017-04-05T09:53:32.690Z,48.33
2017-04-05T09:54:31.857Z,53.40
2017-04-05T09:55:31.388Z,55.47
2017-04-05T09:56:30.581Z,47.03
2017-04-05T09:57:29.797Z,49.38
2017-04-05T09:58:28.941Z,48.03
2017-04-05T09:59:28.298Z,47.22
2017-04-05T10:00:27.438Z,50.60
2017-04-05T10:01:27.070Z,53.38
2017-04-05T10:02:26.229Z,50.17
2017-04-05T10:03:25.370Z,50.77
2017-04-05T10:04:25.258Z,52.17
2017-04-05T10:05:24.717Z,49.37
2017-04-05T10:06:23.922Z,53.03
2017-04-05T10:07:23.318Z,52.53
2017-04-05T10:08:22.469Z,49.90
2017-04-05T10:09:21.708Z,52.05
2017-04-05T10:10:20.886Z,51.83
2017-04-05T10:11:20.086Z,51.85
2017-04-05T10:12:19.232Z,55.78
2017-04-05T10:13:18.449Z,52.78
2017-04-05T10:14:17.699Z,49.67
2017-04-05T10:15:17.361Z,50.13
2017-04-05T10:16:17.262Z,46.57
2017-04-05T10:17:16.728Z,50.58
2017-04-05T10:18:16.517Z,53.12
2017-04-05T10:19:15.841Z,44.10
2017-04-05T10:20:15.001Z,44.50
2017-04-05T10:21:14.178Z,47.83
2017-04-05T10:22:13.802Z,49.37
2017-04-05T10:23:12.983Z,45.97
2017-04-05T10:24:12.169Z,42.42
2017-04-05T10:25:11.428Z,42.27
2017-04-05T10:26:10.812Z,43.15
2017-04-05T10:27:09.986Z,42.03
2017-04-05T10:28:09.131Z,42.08
2017-04-05T10:29:08.262Z,43.95
2017-04-05T10:30:07.475Z,44.22
2017-04-05T10:31:06.681Z,42.07
2017-04-05T10:32:05.848Z,41.82
2017-04-05T10:33:04.996Z,42.05
2017-04-05T10:34:04.897Z,38.30
2017-04-05T10:35:04.829Z,36.45
2017-04-05T10:36:03.977Z,38.77
2017-04-05T10:37:03.686Z,32.98
2017-04-05T10:38:03.645Z,31.52
2017-04-05T10:39:02.833Z,32.07
2017-04-05T10:40:01.972Z,32.45
2017-04-05T10:41:02.333Z,30.30
2017-04-05T10:42:01.581Z,30.50
2017-04-05T10:43:01.597Z,32.63
2017-04-05T10:44:01.118Z,32.33
2017-04-05T10:45:00.261Z,32.70
2017-04-05T10:45:59.389Z,34.97
2017-04-05T10:46:58.533Z,30.10
2017-04-05T10:47:58.446Z,33.22
2017-04-05T10:48:58.414Z,29.30
2017-04-05T10:49:57.565Z,27.82
2017-04-05T10:50:56.711Z,34.55
2017-04-05T10:51:55.884Z,28.53
2017-04-05T10:52:55.513Z,26.70
2017-04-05T10:53:55.456Z,26.30
2017-04-05T10:54:55.080Z,23.07
2017-04-05T10:55:54.296Z,27.88
2017-04-05T10:56:54.197Z,26.07
2017-04-05T10:57:54.117Z,26.57
2017-04-05T10:58:54.042Z,32.38
2017-04-05T10:59:53.184Z,39.87
2017-04-05T11:00:52.416Z,40.22
2017-04-05T11:01:51.656Z,39.10
2017-04-05T11:02:51.652Z,45.17
2017-04-05T11:03:51.160Z,48.55
2017-04-05T11:04:50.478Z,46.70
2017-04-05T11:05:50.365Z,43.27
2017-04-05T11:06:49.853Z,44.40
2017-04-05T11:07:49.041Z,44.25
2017-04-05T11:08:48.509Z,40.75
2017-04-05T11:09:47.737Z,41.52
2017-04-05T11:10:47.622Z,34.62
2017-04-05T11:11:46.766Z,35.78
2017-04-05T11:12:46.105Z,32.30
2017-04-05T11:13:45.263Z,30.82
2017-04-05T11:14:44.399Z,31.67
2017-04-05T11:15:44.277Z,40.32
2017-04-05T11:16:43.441Z,36.70
2017-04-05T11:17:42.573Z,37.78
2017-04-05T11:18:42.270Z,40.98
2017-04-05T11:19:42.174Z,44.40
2017-04-05T11:20:42.073Z,44.30
2017-04-05T11:21:41.220Z,37.28
2017-04-05T11:22:40.413Z,33.03
2017-04-05T11:23:40.131Z,36.08
2017-04-05T11:24:39.319Z,31.38
2017-04-05T11:25:38.461Z,37.30
2017-04-05T11:26:37.662Z,33.33
2017-04-05T11:27:36.912Z,28.75
2017-04-05T11:28:36.992Z,30.73
2017-04-05T11:29:36.485Z,29.93
2017-04-05T11:30:35.725Z,24.57
2017-04-05T11:31:35.185Z,24.35
2017-04-05T11:32:34.372Z,23.53
2017-04-05T11:33:33.541Z,20.63
2017-04-05T11:34:32.738Z,21.15
2017-04-05T11:35:31.917Z,19.25
2017-04-05T11:36:31.217Z,20.02
2017-04-05T11:37:30.437Z,19.77
2017-04-05T11:38:30.320Z,21.42
2017-04-05T11:39:29.495Z,17.55
2017-04-05T11:40:28.945Z,20.95
2017-04-05T11:41:28.122Z,21.62
2017-04-05T11:42:27.782Z,20.22
2017-04-05T11:43:26.961Z,20.07
2017-04-05T11:44:26.132Z,20.50
2017-04-05T11:45:25.254Z,19.13
2017-04-05T11:46:25.133Z,18.15
2017-04-05T11:47:24.293Z,17.30
2017-04-05T11:48:23.592Z,17.70
2017-04-05T11:49:22.720Z,16.12
2017-04-05T11:50:21.842Z,17.68
2017-04-05T11:51:20.984Z,17.50
2017-04-05T11:52:20.126Z,17.02
2017-04-05T11:53:19.244Z,18.83
2017-04-05T11:54:18.404Z,17.77
2017-04-05T11:55:17.551Z,17.55
2017-04-05T11:56:17.414Z,17.25
2017-04-05T11:57:16.593Z,17.37
2017-04-05T11:58:15.728Z,17.60
2017-04-05T11:59:15.620Z,17.90
2017-04-05T12:00:14.828Z,17.30
2017-04-05T12:01:14.740Z,15.70
2017-04-05T12:02:14.604Z,16.57
2017-04-05T12:03:13.723Z,16.88
2017-04-05T12:04:13.620Z,16.40
2017-04-05T12:05:13.505Z,18.00
2017-04-05T12:06:13.598Z,15.10
2017-04-05T12:07:12.716Z,15.30
2017-04-05T12:08:12.581Z,15.22
2017-04-05T12:09:11.731Z,15.03
2017-04-05T12:10:10.851Z,14.88
2017-04-05T12:11:10.000Z,17.33
2017-04-05T12:12:09.492Z,15.32
2017-04-05T12:13:08.622Z,15.32
2017-04-05T12:14:07.788Z,13.83
2017-04-05T12:15:06.910Z,11.38
2017-04-05T12:16:06.027Z,13.40
2017-04-05T12:17:05.882Z,11.65
2017-04-05T12:18:05.044Z,12.62
2017-04-05T12:19:04.176Z,12.90
2017-04-05T12:20:03.321Z,12.78
2017-04-05T12:21:02.444Z,11.95
2017-04-05T12:22:01.581Z,13.57
2017-04-05T12:23:00.701Z,14.45
2017-04-05T12:23:59.924Z,11.83
2017-04-05T12:24:59.039Z,12.22
2017-04-05T12:25:58.164Z,16.38
2017-04-05T12:26:57.289Z,11.53
2017-04-05T12:27:58.309Z,15.27
2017-04-05T12:28:59.248Z,16.70
2017-04-05T12:29:59.558Z,14.03
2017-04-05T12:31:00.296Z,13.05
2017-04-05T12:32:00.361Z,11.55
2017-04-05T12:33:00.349Z,17.67
2017-04-05T12:34:00.244Z,15.48
2017-04-05T12:35:01.347Z,14.38
2017-04-05T12:36:01.322Z,13.87
2017-04-05T12:37:01.264Z,12.43
2017-04-05T12:38:01.082Z,13.37
2017-04-05T12:39:01.142Z,12.93
2017-04-05T12:40:01.288Z,15.07
2017-04-05T12:41:01.446Z,12.52
2017-04-05T12:42:01.382Z,11.08
2017-04-05T12:45:00.193Z,13.93
2017-04-05T12:46:00.103Z,14.85
2017-04-05T12:47:00.007Z,10.95